sensor_id;sensor_type;location;lat;lon;timestamp;P1;durP1;ratioP1;P2;durP2;ratioP2
8538;SDS011;4307;53.868;11.680;2022-12-18T00:01:51;48.07;;;17.13;;
8538;SDS011;4307;53.868;11.680;2022-12-18T00:04:20;46.27;;;16.87;;
8538;SDS011;4307;53.868;11.680;2022-12-18T00:06:49;40.00;;;14.87;;
8538;SDS011;4307;53.868;11.680;2022-12-18T00:09:16;39.60;;;16.30;;
8538;SDS011;4307;53.868;11.680;2022-12-18T00:11:43;47.07;;;18.33;;
8538;SDS011;4307;53.868;11.680;2022-12-18T00:14:12;43.37;;;16.17;;
8538;SDS011;4307;53.868;11.680;2022-12-18T00:16:39;38.37;;;15.77;;
8538;SDS011;4307;53.868;11.680;2022-12-18T00:19:09;46.50;;;18.33;;
8538;SDS011;4307;53.868;11.680;2022-12-18T00:21:36;34.97;;;14.03;;
8538;SDS011;4307;53.868;11.680;2022-12-18T00:24:05;41.40;;;16.37;;
8538;SDS011;4307;53.868;11.680;2022-12-18T00:26:32;51.53;;;17.87;;
8538;SDS011;4307;53.868;11.680;2022-12-18T00:29:01;37.37;;;14.80;;
8538;SDS011;4307;53.868;11.680;2022-12-18T00:31:29;42.17;;;14.93;;
8538;SDS011;4307;53.868;11.680;2022-12-18T00:33:56;34.73;;;13.87;;
8538;SDS011;4307;53.868;11.680;2022-12-18T00:36:23;13.27;;;6.27;;
8538;SDS011;4307;53.868;11.680;2022-12-18T00:38:52;30.23;;;13.30;;
8538;SDS011;4307;53.868;11.680;2022-12-18T00:41:21;23.93;;;11.20;;
8538;SDS011;4307;53.868;11.680;2022-12-18T00:44:02;32.47;;;13.50;;
8538;SDS011;4307;53.868;11.680;2022-12-18T00:46:30;37.50;;;15.40;;
8538;SDS011;4307;53.868;11.680;2022-12-18T00:48:57;37.53;;;15.13;;
8538;SDS011;4307;53.868;11.680;2022-12-18T00:51:24;25.60;;;10.57;;
8538;SDS011;4307;53.868;11.680;2022-12-18T00:53:52;27.87;;;10.73;;
8538;SDS011;4307;53.868;11.680;2022-12-18T00:56:20;35.93;;;15.20;;
8538;SDS011;4307;53.868;11.680;2022-12-18T00:58:47;33.17;;;13.57;;
8538;SDS011;4307;53.868;11.680;2022-12-18T01:01:14;31.13;;;13.50;;
8538;SDS011;4307;53.868;11.680;2022-12-18T01:03:41;28.50;;;11.37;;
8538;SDS011;4307;53.868;11.680;2022-12-18T01:06:08;41.97;;;14.40;;
8538;SDS011;4307;53.868;11.680;2022-12-18T01:08:36;37.10;;;14.73;;
8538;SDS011;4307;53.868;11.680;2022-12-18T01:11:07;31.33;;;13.67;;
8538;SDS011;4307;53.868;11.680;2022-12-18T01:13:35;39.10;;;14.77;;
8538;SDS011;4307;53.868;11.680;2022-12-18T01:16:02;38.93;;;14.77;;
8538;SDS011;4307;53.868;11.680;2022-12-18T01:18:29;27.60;;;13.33;;
8538;SDS011;4307;53.868;11.680;2022-12-18T01:20:56;38.90;;;13.93;;
8538;SDS011;4307;53.868;11.680;2022-12-18T01:23:22;39.90;;;14.30;;
8538;SDS011;4307;53.868;11.680;2022-12-18T01:25:49;36.97;;;15.20;;
8538;SDS011;4307;53.868;11.680;2022-12-18T01:28:16;36.50;;;14.97;;
8538;SDS011;4307;53.868;11.680;2022-12-18T01:30:44;34.57;;;14.57;;
8538;SDS011;4307;53.868;11.680;2022-12-18T01:33:10;29.37;;;12.00;;
8538;SDS011;4307;53.868;11.680;2022-12-18T01:35:39;29.40;;;13.00;;
8538;SDS011;4307;53.868;11.680;2022-12-18T01:38:07;26.60;;;11.77;;
8538;SDS011;4307;53.868;11.680;2022-12-18T01:40:34;30.17;;;11.63;;
8538;SDS011;4307;53.868;11.680;2022-12-18T01:43:01;17.30;;;8.63;;
8538;SDS011;4307;53.868;11.680;2022-12-18T01:45:28;35.87;;;14.20;;
8538;SDS011;4307;53.868;11.680;2022-12-18T01:47:58;32.73;;;13.23;;
8538;SDS011;4307;53.868;11.680;2022-12-18T01:50:28;29.67;;;11.67;;
8538;SDS011;4307;53.868;11.680;2022-12-18T01:52:59;26.63;;;10.90;;
8538;SDS011;4307;53.868;11.680;2022-12-18T01:55:31;23.63;;;10.47;;
8538;SDS011;4307;53.868;11.680;2022-12-18T01:58:01;27.00;;;11.80;;
8538;SDS011;4307;53.868;11.680;2022-12-18T02:00:29;30.27;;;12.90;;
8538;SDS011;4307;53.868;11.680;2022-12-18T02:02:56;30.43;;;12.80;;
8538;SDS011;4307;53.868;11.680;2022-12-18T02:05:26;34.50;;;13.13;;
8538;SDS011;4307;53.868;11.680;2022-12-18T02:08:03;32.77;;;13.50;;
8538;SDS011;4307;53.868;11.680;2022-12-18T02:10:37;33.80;;;13.40;;
8538;SDS011;4307;53.868;11.680;2022-12-18T02:13:12;39.57;;;15.30;;
8538;SDS011;4307;53.868;11.680;2022-12-18T02:15:47;34.10;;;14.73;;
8538;SDS011;4307;53.868;11.680;2022-12-18T02:18:22;35.73;;;13.47;;
8538;SDS011;4307;53.868;11.680;2022-12-18T02:20:55;31.60;;;13.50;;
8538;SDS011;4307;53.868;11.680;2022-12-18T02:23:33;16.77;;;8.73;;
8538;SDS011;4307;53.868;11.680;2022-12-18T02:26:16;27.27;;;11.73;;
8538;SDS011;4307;53.868;11.680;2022-12-18T02:28:47;30.80;;;12.83;;
8538;SDS011;4307;53.868;11.680;2022-12-18T02:31:18;26.03;;;11.03;;
8538;SDS011;4307;53.868;11.680;2022-12-18T02:33:47;35.23;;;12.53;;
8538;SDS011;4307;53.868;11.680;2022-12-18T02:36:16;30.67;;;12.83;;
8538;SDS011;4307;53.868;11.680;2022-12-18T02:38:46;28.50;;;12.07;;
8538;SDS011;4307;53.868;11.680;2022-12-18T02:41:13;17.20;;;7.43;;
8538;SDS011;4307;53.868;11.680;2022-12-18T02:43:47;27.53;;;11.60;;
8538;SDS011;4307;53.868;11.680;2022-12-18T02:46:23;27.07;;;10.60;;
8538;SDS011;4307;53.868;11.680;2022-12-18T02:48:54;26.70;;;9.03;;
8538;SDS011;4307;53.868;11.680;2022-12-18T02:51:29;25.00;;;10.23;;
8538;SDS011;4307;53.868;11.680;2022-12-18T02:54:02;12.33;;;4.60;;
8538;SDS011;4307;53.868;11.680;2022-12-18T02:56:37;31.27;;;12.70;;
8538;SDS011;4307;53.868;11.680;2022-12-18T02:59:13;28.30;;;12.03;;
8538;SDS011;4307;53.868;11.680;2022-12-18T03:01:46;25.87;;;11.23;;
8538;SDS011;4307;53.868;11.680;2022-12-18T03:04:18;27.17;;;11.83;;
8538;SDS011;4307;53.868;11.680;2022-12-18T03:06:52;26.13;;;12.30;;
8538;SDS011;4307;53.868;11.680;2022-12-18T03:09:27;27.00;;;11.53;;
8538;SDS011;4307;53.868;11.680;2022-12-18T03:11:59;15.93;;;8.83;;
8538;SDS011;4307;53.868;11.680;2022-12-18T03:14:50;27.80;;;12.13;;
8538;SDS011;4307;53.868;11.680;2022-12-18T03:17:22;27.53;;;10.67;;
8538;SDS011;4307;53.868;11.680;2022-12-18T03:19:52;28.30;;;12.50;;
8538;SDS011;4307;53.868;11.680;2022-12-18T03:22:23;25.40;;;11.23;;
8538;SDS011;4307;53.868;11.680;2022-12-18T03:24:52;26.33;;;12.57;;
8538;SDS011;4307;53.868;11.680;2022-12-18T03:27:21;27.70;;;12.33;;
8538;SDS011;4307;53.868;11.680;2022-12-18T03:29:51;32.70;;;13.40;;
8538;SDS011;4307;53.868;11.680;2022-12-18T03:32:24;33.83;;;13.83;;
8538;SDS011;4307;53.868;11.680;2022-12-18T03:34:56;33.43;;;14.43;;
8538;SDS011;4307;53.868;11.680;2022-12-18T03:37:25;32.37;;;13.40;;
8538;SDS011;4307;53.868;11.680;2022-12-18T03:39:52;30.33;;;12.97;;
8538;SDS011;4307;53.868;11.680;2022-12-18T03:42:20;25.17;;;11.73;;
8538;SDS011;4307;53.868;11.680;2022-12-18T03:44:57;30.90;;;11.97;;
8538;SDS011;4307;53.868;11.680;2022-12-18T03:47:30;26.70;;;11.60;;
8538;SDS011;4307;53.868;11.680;2022-12-18T03:50:04;16.90;;;7.37;;
8538;SDS011;4307;53.868;11.680;2022-12-18T03:52:38;10.23;;;5.50;;
8538;SDS011;4307;53.868;11.680;2022-12-18T03:55:09;18.20;;;9.03;;
8538;SDS011;4307;53.868;11.680;2022-12-18T03:57:36;19.83;;;9.10;;
8538;SDS011;4307;53.868;11.680;2022-12-18T04:00:07;20.60;;;10.60;;
8538;SDS011;4307;53.868;11.680;2022-12-18T04:02:36;15.00;;;7.83;;
8538;SDS011;4307;53.868;11.680;2022-12-18T04:05:07;20.00;;;9.13;;
8538;SDS011;4307;53.868;11.680;2022-12-18T04:07:36;22.60;;;9.50;;
8538;SDS011;4307;53.868;11.680;2022-12-18T04:10:05;28.57;;;12.37;;
8538;SDS011;4307;53.868;11.680;2022-12-18T04:12:41;28.73;;;11.00;;
8538;SDS011;4307;53.868;11.680;2022-12-18T04:15:10;24.53;;;10.23;;
8538;SDS011;4307;53.868;11.680;2022-12-18T04:17:37;25.93;;;11.60;;
8538;SDS011;4307;53.868;11.680;2022-12-18T04:20:05;23.20;;;11.27;;
8538;SDS011;4307;53.868;11.680;2022-12-18T04:22:32;26.30;;;10.50;;
8538;SDS011;4307;53.868;11.680;2022-12-18T04:24:59;19.93;;;10.07;;
8538;SDS011;4307;53.868;11.680;2022-12-18T04:27:25;11.30;;;5.90;;
8538;SDS011;4307;53.868;11.680;2022-12-18T04:29:52;24.00;;;9.93;;
8538;SDS011;4307;53.868;11.680;2022-12-18T04:32:21;24.03;;;9.97;;
8538;SDS011;4307;53.868;11.680;2022-12-18T04:34:47;24.47;;;11.43;;
8538;SDS011;4307;53.868;11.680;2022-12-18T04:37:14;26.80;;;9.83;;
8538;SDS011;4307;53.868;11.680;2022-12-18T04:39:40;25.77;;;10.57;;
8538;SDS011;4307;53.868;11.680;2022-12-18T04:42:07;21.63;;;9.73;;
8538;SDS011;4307;53.868;11.680;2022-12-18T04:44:34;25.13;;;10.00;;
8538;SDS011;4307;53.868;11.680;2022-12-18T04:47:01;24.60;;;8.27;;
8538;SDS011;4307;53.868;11.680;2022-12-18T04:49:30;23.77;;;10.30;;
8538;SDS011;4307;53.868;11.680;2022-12-18T04:51:56;24.77;;;10.93;;
8538;SDS011;4307;53.868;11.680;2022-12-18T04:54:23;16.97;;;8.03;;
8538;SDS011;4307;53.868;11.680;2022-12-18T04:56:50;25.70;;;10.33;;
8538;SDS011;4307;53.868;11.680;2022-12-18T04:59:17;29.23;;;11.83;;
8538;SDS011;4307;53.868;11.680;2022-12-18T05:01:43;28.03;;;11.97;;
8538;SDS011;4307;53.868;11.680;2022-12-18T05:04:10;23.13;;;10.03;;
8538;SDS011;4307;53.868;11.680;2022-12-18T05:06:38;27.97;;;9.77;;
8538;SDS011;4307;53.868;11.680;2022-12-18T05:09:05;22.43;;;9.63;;
8538;SDS011;4307;53.868;11.680;2022-12-18T05:11:32;26.67;;;10.20;;
8538;SDS011;4307;53.868;11.680;2022-12-18T05:13:58;23.27;;;9.90;;
8538;SDS011;4307;53.868;11.680;2022-12-18T05:16:25;23.33;;;11.20;;
8538;SDS011;4307;53.868;11.680;2022-12-18T05:18:51;29.13;;;10.50;;
8538;SDS011;4307;53.868;11.680;2022-12-18T05:21:18;21.97;;;9.77;;
8538;SDS011;4307;53.868;11.680;2022-12-18T05:23:46;22.60;;;11.20;;
8538;SDS011;4307;53.868;11.680;2022-12-18T05:26:14;23.07;;;10.83;;
8538;SDS011;4307;53.868;11.680;2022-12-18T05:28:42;22.30;;;10.57;;
8538;SDS011;4307;53.868;11.680;2022-12-18T05:31:09;21.10;;;10.17;;
8538;SDS011;4307;53.868;11.680;2022-12-18T05:33:36;29.57;;;9.97;;
8538;SDS011;4307;53.868;11.680;2022-12-18T05:36:04;23.87;;;10.07;;
8538;SDS011;4307;53.868;11.680;2022-12-18T05:38:33;27.70;;;10.47;;
8538;SDS011;4307;53.868;11.680;2022-12-18T05:41:02;23.50;;;10.37;;
8538;SDS011;4307;53.868;11.680;2022-12-18T05:43:29;24.30;;;9.83;;
8538;SDS011;4307;53.868;11.680;2022-12-18T05:45:56;28.00;;;10.43;;
8538;SDS011;4307;53.868;11.680;2022-12-18T05:48:23;25.37;;;10.30;;
8538;SDS011;4307;53.868;11.680;2022-12-18T05:50:50;28.20;;;11.07;;
8538;SDS011;4307;53.868;11.680;2022-12-18T05:53:18;25.03;;;10.83;;
8538;SDS011;4307;53.868;11.680;2022-12-18T05:55:46;26.20;;;11.20;;
8538;SDS011;4307;53.868;11.680;2022-12-18T05:58:14;25.63;;;10.00;;
8538;SDS011;4307;53.868;11.680;2022-12-18T06:00:42;24.27;;;10.00;;
8538;SDS011;4307;53.868;11.680;2022-12-18T06:03:10;25.87;;;10.17;;
8538;SDS011;4307;53.868;11.680;2022-12-18T06:05:38;18.03;;;7.47;;
8538;SDS011;4307;53.868;11.680;2022-12-18T06:08:06;9.37;;;6.17;;
8538;SDS011;4307;53.868;11.680;2022-12-18T06:10:33;21.13;;;9.93;;
8538;SDS011;4307;53.868;11.680;2022-12-18T06:13:00;15.47;;;6.97;;
8538;SDS011;4307;53.868;11.680;2022-12-18T06:15:28;22.27;;;9.60;;
8538;SDS011;4307;53.868;11.680;2022-12-18T06:17:55;21.53;;;8.57;;
8538;SDS011;4307;53.868;11.680;2022-12-18T06:20:22;23.50;;;9.83;;
8538;SDS011;4307;53.868;11.680;2022-12-18T06:22:48;24.70;;;9.77;;
8538;SDS011;4307;53.868;11.680;2022-12-18T06:25:15;16.00;;;8.80;;
8538;SDS011;4307;53.868;11.680;2022-12-18T06:27:42;22.10;;;10.27;;
8538;SDS011;4307;53.868;11.680;2022-12-18T06:30:09;25.50;;;10.53;;
8538;SDS011;4307;53.868;11.680;2022-12-18T06:32:38;31.20;;;10.03;;
8538;SDS011;4307;53.868;11.680;2022-12-18T06:35:05;22.00;;;9.90;;
8538;SDS011;4307;53.868;11.680;2022-12-18T06:37:33;23.47;;;10.57;;
8538;SDS011;4307;53.868;11.680;2022-12-18T06:39:59;21.80;;;9.40;;
8538;SDS011;4307;53.868;11.680;2022-12-18T06:42:26;20.93;;;9.60;;
8538;SDS011;4307;53.868;11.680;2022-12-18T06:44:54;20.03;;;9.77;;
8538;SDS011;4307;53.868;11.680;2022-12-18T06:47:21;24.23;;;10.50;;
8538;SDS011;4307;53.868;11.680;2022-12-18T06:49:49;24.63;;;9.97;;
8538;SDS011;4307;53.868;11.680;2022-12-18T06:52:16;24.50;;;10.97;;
8538;SDS011;4307;53.868;11.680;2022-12-18T06:54:42;20.83;;;10.10;;
8538;SDS011;4307;53.868;11.680;2022-12-18T06:57:09;22.20;;;10.07;;
8538;SDS011;4307;53.868;11.680;2022-12-18T06:59:36;25.93;;;10.37;;
8538;SDS011;4307;53.868;11.680;2022-12-18T07:02:02;24.37;;;10.93;;
8538;SDS011;4307;53.868;11.680;2022-12-18T07:04:29;23.47;;;10.97;;
8538;SDS011;4307;53.868;11.680;2022-12-18T07:06:57;22.53;;;10.10;;
8538;SDS011;4307;53.868;11.680;2022-12-18T07:09:24;26.40;;;10.50;;
8538;SDS011;4307;53.868;11.680;2022-12-18T07:11:51;21.70;;;10.03;;
8538;SDS011;4307;53.868;11.680;2022-12-18T07:14:17;25.23;;;10.93;;
8538;SDS011;4307;53.868;11.680;2022-12-18T07:16:44;25.73;;;10.83;;
8538;SDS011;4307;53.868;11.680;2022-12-18T07:19:11;24.70;;;10.47;;
8538;SDS011;4307;53.868;11.680;2022-12-18T07:21:37;28.23;;;12.33;;
8538;SDS011;4307;53.868;11.680;2022-12-18T07:24:06;23.63;;;9.33;;
8538;SDS011;4307;53.868;11.680;2022-12-18T07:26:33;24.10;;;9.97;;
8538;SDS011;4307;53.868;11.680;2022-12-18T07:29:00;24.93;;;9.70;;
8538;SDS011;4307;53.868;11.680;2022-12-18T07:31:27;21.53;;;9.97;;
8538;SDS011;4307;53.868;11.680;2022-12-18T07:33:53;28.93;;;10.60;;
8538;SDS011;4307;53.868;11.680;2022-12-18T07:36:20;27.60;;;10.57;;
8538;SDS011;4307;53.868;11.680;2022-12-18T07:38:47;21.73;;;9.90;;
8538;SDS011;4307;53.868;11.680;2022-12-18T07:41:16;27.43;;;11.37;;
8538;SDS011;4307;53.868;11.680;2022-12-18T07:43:43;21.43;;;10.07;;
8538;SDS011;4307;53.868;11.680;2022-12-18T07:46:10;13.30;;;6.30;;
8538;SDS011;4307;53.868;11.680;2022-12-18T07:48:38;15.63;;;8.13;;
8538;SDS011;4307;53.868;11.680;2022-12-18T07:51:05;16.70;;;8.17;;
8538;SDS011;4307;53.868;11.680;2022-12-18T07:53:32;21.87;;;10.90;;
8538;SDS011;4307;53.868;11.680;2022-12-18T07:56:01;27.63;;;12.00;;
8538;SDS011;4307;53.868;11.680;2022-12-18T07:58:31;36.77;;;18.00;;
8538;SDS011;4307;53.868;11.680;2022-12-18T08:01:02;24.37;;;10.37;;
8538;SDS011;4307;53.868;11.680;2022-12-18T08:03:29;24.87;;;11.47;;
8538;SDS011;4307;53.868;11.680;2022-12-18T08:05:58;21.10;;;8.87;;
8538;SDS011;4307;53.868;11.680;2022-12-18T08:08:25;19.50;;;9.43;;
8538;SDS011;4307;53.868;11.680;2022-12-18T08:10:51;23.67;;;8.73;;
8538;SDS011;4307;53.868;11.680;2022-12-18T08:13:18;18.87;;;8.50;;
8538;SDS011;4307;53.868;11.680;2022-12-18T08:15:46;19.00;;;8.67;;
8538;SDS011;4307;53.868;11.680;2022-12-18T08:18:21;19.40;;;8.60;;
8538;SDS011;4307;53.868;11.680;2022-12-18T08:20:47;21.20;;;8.87;;
8538;SDS011;4307;53.868;11.680;2022-12-18T08:23:14;19.17;;;6.60;;
8538;SDS011;4307;53.868;11.680;2022-12-18T08:25:40;22.37;;;9.57;;
8538;SDS011;4307;53.868;11.680;2022-12-18T08:28:07;15.30;;;7.47;;
8538;SDS011;4307;53.868;11.680;2022-12-18T08:30:34;20.07;;;7.80;;
8538;SDS011;4307;53.868;11.680;2022-12-18T08:33:03;22.70;;;10.10;;
8538;SDS011;4307;53.868;11.680;2022-12-18T08:35:30;16.40;;;8.10;;
8538;SDS011;4307;53.868;11.680;2022-12-18T08:38:00;17.77;;;7.93;;
8538;SDS011;4307;53.868;11.680;2022-12-18T08:40:27;19.57;;;7.87;;
8538;SDS011;4307;53.868;11.680;2022-12-18T08:42:53;17.73;;;8.67;;
8538;SDS011;4307;53.868;11.680;2022-12-18T08:45:37;17.10;;;7.73;;
8538;SDS011;4307;53.868;11.680;2022-12-18T08:48:06;19.70;;;8.83;;
8538;SDS011;4307;53.868;11.680;2022-12-18T08:50:32;19.87;;;9.00;;
8538;SDS011;4307;53.868;11.680;2022-12-18T08:52:59;21.10;;;9.70;;
8538;SDS011;4307;53.868;11.680;2022-12-18T08:55:26;23.33;;;8.80;;
8538;SDS011;4307;53.868;11.680;2022-12-18T08:57:53;20.33;;;9.53;;
8538;SDS011;4307;53.868;11.680;2022-12-18T09:00:19;20.60;;;8.67;;
8538;SDS011;4307;53.868;11.680;2022-12-18T09:02:46;20.00;;;9.90;;
8538;SDS011;4307;53.868;11.680;2022-12-18T09:05:15;20.67;;;9.57;;
8538;SDS011;4307;53.868;11.680;2022-12-18T09:07:42;15.87;;;8.17;;
8538;SDS011;4307;53.868;11.680;2022-12-18T09:10:09;18.93;;;9.63;;
8538;SDS011;4307;53.868;11.680;2022-12-18T09:12:35;24.63;;;10.47;;
8538;SDS011;4307;53.868;11.680;2022-12-18T09:15:02;22.23;;;9.53;;
8538;SDS011;4307;53.868;11.680;2022-12-18T09:17:29;21.33;;;9.60;;
8538;SDS011;4307;53.868;11.680;2022-12-18T09:19:56;17.17;;;7.70;;
8538;SDS011;4307;53.868;11.680;2022-12-18T09:22:24;22.53;;;9.90;;
8538;SDS011;4307;53.868;11.680;2022-12-18T09:24:50;19.47;;;8.17;;
8538;SDS011;4307;53.868;11.680;2022-12-18T09:27:17;10.23;;;5.63;;
8538;SDS011;4307;53.868;11.680;2022-12-18T09:29:44;23.80;;;11.07;;
8538;SDS011;4307;53.868;11.680;2022-12-18T09:32:10;9.77;;;5.20;;
8538;SDS011;4307;53.868;11.680;2022-12-18T09:34:37;22.00;;;11.03;;
8538;SDS011;4307;53.868;11.680;2022-12-18T09:37:03;20.97;;;9.93;;
8538;SDS011;4307;53.868;11.680;2022-12-18T09:39:31;9.57;;;5.17;;
8538;SDS011;4307;53.868;11.680;2022-12-18T09:42:02;19.90;;;9.20;;
8538;SDS011;4307;53.868;11.680;2022-12-18T09:44:29;19.47;;;7.07;;
8538;SDS011;4307;53.868;11.680;2022-12-18T09:47:02;27.73;;;10.90;;
8538;SDS011;4307;53.868;11.680;2022-12-18T09:49:33;20.37;;;8.93;;
8538;SDS011;4307;53.868;11.680;2022-12-18T09:52:04;8.43;;;5.70;;
8538;SDS011;4307;53.868;11.680;2022-12-18T09:54:38;11.27;;;5.57;;
8538;SDS011;4307;53.868;11.680;2022-12-18T09:57:05;25.17;;;10.80;;
8538;SDS011;4307;53.868;11.680;2022-12-18T09:59:34;21.00;;;8.97;;
8538;SDS011;4307;53.868;11.680;2022-12-18T10:02:11;19.17;;;8.97;;
8538;SDS011;4307;53.868;11.680;2022-12-18T10:04:40;21.20;;;10.23;;
8538;SDS011;4307;53.868;11.680;2022-12-18T10:07:08;19.67;;;9.63;;
8538;SDS011;4307;53.868;11.680;2022-12-18T10:09:44;17.17;;;8.60;;
8538;SDS011;4307;53.868;11.680;2022-12-18T10:12:19;19.73;;;9.50;;
8538;SDS011;4307;53.868;11.680;2022-12-18T10:14:53;16.80;;;8.63;;
8538;SDS011;4307;53.868;11.680;2022-12-18T10:17:32;23.90;;;10.23;;
8538;SDS011;4307;53.868;11.680;2022-12-18T10:20:09;17.40;;;9.03;;
8538;SDS011;4307;53.868;11.680;2022-12-18T10:22:42;14.20;;;6.50;;
8538;SDS011;4307;53.868;11.680;2022-12-18T10:25:18;13.77;;;6.70;;
8538;SDS011;4307;53.868;11.680;2022-12-18T10:27:49;21.00;;;9.87;;
8538;SDS011;4307;53.868;11.680;2022-12-18T10:30:20;23.93;;;10.93;;
8538;SDS011;4307;53.868;11.680;2022-12-18T10:32:48;10.00;;;4.57;;
8538;SDS011;4307;53.868;11.680;2022-12-18T10:35:16;24.27;;;10.73;;
8538;SDS011;4307;53.868;11.680;2022-12-18T10:38:05;14.60;;;7.47;;
8538;SDS011;4307;53.868;11.680;2022-12-18T10:40:51;21.23;;;10.33;;
8538;SDS011;4307;53.868;11.680;2022-12-18T10:43:21;19.93;;;9.27;;
8538;SDS011;4307;53.868;11.680;2022-12-18T10:45:58;22.13;;;9.63;;
8538;SDS011;4307;53.868;11.680;2022-12-18T10:48:26;23.00;;;10.83;;
8538;SDS011;4307;53.868;11.680;2022-12-18T10:50:53;21.10;;;10.07;;
8538;SDS011;4307;53.868;11.680;2022-12-18T10:53:21;17.97;;;9.27;;
8538;SDS011;4307;53.868;11.680;2022-12-18T10:55:51;26.10;;;10.83;;
8538;SDS011;4307;53.868;11.680;2022-12-18T10:58:22;14.67;;;6.70;;
8538;SDS011;4307;53.868;11.680;2022-12-18T11:01:03;18.67;;;9.17;;
8538;SDS011;4307;53.868;11.680;2022-12-18T11:03:34;22.73;;;10.73;;
8538;SDS011;4307;53.868;11.680;2022-12-18T11:06:03;18.83;;;9.23;;
8538;SDS011;4307;53.868;11.680;2022-12-18T11:08:32;19.00;;;8.80;;
8538;SDS011;4307;53.868;11.680;2022-12-18T11:11:00;19.53;;;10.23;;
8538;SDS011;4307;53.868;11.680;2022-12-18T11:13:28;25.60;;;11.93;;
8538;SDS011;4307;53.868;11.680;2022-12-18T11:15:56;12.43;;;6.53;;
8538;SDS011;4307;53.868;11.680;2022-12-18T11:18:24;22.10;;;10.63;;
8538;SDS011;4307;53.868;11.680;2022-12-18T11:20:54;15.90;;;8.30;;
8538;SDS011;4307;53.868;11.680;2022-12-18T11:23:23;16.80;;;7.27;;
8538;SDS011;4307;53.868;11.680;2022-12-18T11:25:51;14.00;;;6.17;;
8538;SDS011;4307;53.868;11.680;2022-12-18T11:28:38;10.97;;;6.40;;
8538;SDS011;4307;53.868;11.680;2022-12-18T11:31:16;19.93;;;8.90;;
8538;SDS011;4307;53.868;11.680;2022-12-18T11:33:54;15.97;;;9.07;;
8538;SDS011;4307;53.868;11.680;2022-12-18T11:36:25;15.77;;;7.53;;
8538;SDS011;4307;53.868;11.680;2022-12-18T11:38:55;27.80;;;11.87;;
8538;SDS011;4307;53.868;11.680;2022-12-18T11:41:27;24.33;;;9.07;;
8538;SDS011;4307;53.868;11.680;2022-12-18T11:44:13;25.57;;;11.73;;
8538;SDS011;4307;53.868;11.680;2022-12-18T11:46:45;19.97;;;9.13;;
8538;SDS011;4307;53.868;11.680;2022-12-18T11:49:17;16.80;;;9.20;;
8538;SDS011;4307;53.868;11.680;2022-12-18T11:51:50;21.47;;;10.33;;
8538;SDS011;4307;53.868;11.680;2022-12-18T11:54:22;23.43;;;11.23;;
8538;SDS011;4307;53.868;11.680;2022-12-18T11:56:49;19.47;;;9.37;;
8538;SDS011;4307;53.868;11.680;2022-12-18T11:59:23;27.67;;;11.83;;
8538;SDS011;4307;53.868;11.680;2022-12-18T12:01:58;20.90;;;7.73;;
8538;SDS011;4307;53.868;11.680;2022-12-18T12:04:43;27.83;;;12.27;;
8538;SDS011;4307;53.868;11.680;2022-12-18T12:07:18;24.37;;;11.27;;
8538;SDS011;4307;53.868;11.680;2022-12-18T12:10:00;12.47;;;6.03;;
8538;SDS011;4307;53.868;11.680;2022-12-18T12:12:37;17.37;;;8.40;;
8538;SDS011;4307;53.868;11.680;2022-12-18T12:15:19;21.90;;;9.13;;
8538;SDS011;4307;53.868;11.680;2022-12-18T12:17:54;15.03;;;7.53;;
8538;SDS011;4307;53.868;11.680;2022-12-18T12:20:29;16.30;;;7.53;;
8538;SDS011;4307;53.868;11.680;2022-12-18T12:23:07;17.70;;;8.70;;
8538;SDS011;4307;53.868;11.680;2022-12-18T12:25:41;12.20;;;7.23;;
8538;SDS011;4307;53.868;11.680;2022-12-18T12:28:17;19.27;;;8.17;;
8538;SDS011;4307;53.868;11.680;2022-12-18T12:30:57;21.83;;;9.50;;
8538;SDS011;4307;53.868;11.680;2022-12-18T12:33:36;18.87;;;9.33;;
8538;SDS011;4307;53.868;11.680;2022-12-18T12:36:14;13.90;;;7.00;;
8538;SDS011;4307;53.868;11.680;2022-12-18T12:38:46;19.67;;;9.67;;
8538;SDS011;4307;53.868;11.680;2022-12-18T12:41:17;19.03;;;9.03;;
8538;SDS011;4307;53.868;11.680;2022-12-18T12:44:13;21.17;;;10.13;;
8538;SDS011;4307;53.868;11.680;2022-12-18T12:46:44;25.57;;;11.80;;
8538;SDS011;4307;53.868;11.680;2022-12-18T12:49:13;15.33;;;8.60;;
8538;SDS011;4307;53.868;11.680;2022-12-18T12:51:43;28.07;;;11.80;;
8538;SDS011;4307;53.868;11.680;2022-12-18T12:54:12;23.50;;;10.27;;
8538;SDS011;4307;53.868;11.680;2022-12-18T12:56:44;19.83;;;8.70;;
8538;SDS011;4307;53.868;11.680;2022-12-18T12:59:18;23.47;;;11.63;;
8538;SDS011;4307;53.868;11.680;2022-12-18T13:01:57;22.57;;;10.10;;
8538;SDS011;4307;53.868;11.680;2022-12-18T13:04:30;21.93;;;9.77;;
8538;SDS011;4307;53.868;11.680;2022-12-18T13:07:03;19.87;;;10.70;;
8538;SDS011;4307;53.868;11.680;2022-12-18T13:10:10;26.20;;;11.37;;
8538;SDS011;4307;53.868;11.680;2022-12-18T13:12:46;25.23;;;9.77;;
8538;SDS011;4307;53.868;11.680;2022-12-18T13:15:23;32.23;;;12.67;;
8538;SDS011;4307;53.868;11.680;2022-12-18T13:20:48;18.77;;;9.93;;
8538;SDS011;4307;53.868;11.680;2022-12-18T13:23:23;24.87;;;11.23;;
8538;SDS011;4307;53.868;11.680;2022-12-18T13:25:54;8.87;;;5.33;;
8538;SDS011;4307;53.868;11.680;2022-12-18T13:28:21;27.33;;;11.33;;
8538;SDS011;4307;53.868;11.680;2022-12-18T13:30:51;20.83;;;9.23;;
8538;SDS011;4307;53.868;11.680;2022-12-18T13:33:34;25.10;;;10.90;;
8538;SDS011;4307;53.868;11.680;2022-12-18T13:36:10;20.33;;;9.10;;
8538;SDS011;4307;53.868;11.680;2022-12-18T13:38:41;28.67;;;11.40;;
8538;SDS011;4307;53.868;11.680;2022-12-18T13:41:24;21.33;;;11.03;;
8538;SDS011;4307;53.868;11.680;2022-12-18T13:43:53;24.20;;;10.43;;
8538;SDS011;4307;53.868;11.680;2022-12-18T13:46:23;24.33;;;11.23;;
8538;SDS011;4307;53.868;11.680;2022-12-18T13:48:58;20.33;;;10.97;;
8538;SDS011;4307;53.868;11.680;2022-12-18T13:51:28;27.07;;;12.17;;
8538;SDS011;4307;53.868;11.680;2022-12-18T13:53:58;20.93;;;10.43;;
8538;SDS011;4307;53.868;11.680;2022-12-18T13:56:28;24.77;;;11.07;;
8538;SDS011;4307;53.868;11.680;2022-12-18T13:59:08;21.93;;;10.07;;
8538;SDS011;4307;53.868;11.680;2022-12-18T14:01:41;24.73;;;11.50;;
8538;SDS011;4307;53.868;11.680;2022-12-18T14:04:17;25.73;;;10.80;;
8538;SDS011;4307;53.868;11.680;2022-12-18T14:06:53;12.93;;;7.10;;
8538;SDS011;4307;53.868;11.680;2022-12-18T14:09:24;22.53;;;9.87;;
8538;SDS011;4307;53.868;11.680;2022-12-18T14:11:54;19.80;;;10.30;;
8538;SDS011;4307;53.868;11.680;2022-12-18T14:14:42;27.03;;;13.13;;
8538;SDS011;4307;53.868;11.680;2022-12-18T14:17:12;28.37;;;12.63;;
8538;SDS011;4307;53.868;11.680;2022-12-18T14:19:45;21.73;;;10.60;;
8538;SDS011;4307;53.868;11.680;2022-12-18T14:22:14;31.80;;;13.57;;
8538;SDS011;4307;53.868;11.680;2022-12-18T14:24:43;23.07;;;12.57;;
8538;SDS011;4307;53.868;11.680;2022-12-18T14:27:20;8.90;;;4.90;;
8538;SDS011;4307;53.868;11.680;2022-12-18T14:29:49;25.30;;;11.83;;
8538;SDS011;4307;53.868;11.680;2022-12-18T14:32:16;28.13;;;12.20;;
8538;SDS011;4307;53.868;11.680;2022-12-18T14:34:46;25.00;;;12.20;;
8538;SDS011;4307;53.868;11.680;2022-12-18T14:37:15;27.83;;;12.43;;
8538;SDS011;4307;53.868;11.680;2022-12-18T14:39:53;25.30;;;11.43;;
8538;SDS011;4307;53.868;11.680;2022-12-18T14:42:22;28.00;;;11.30;;
8538;SDS011;4307;53.868;11.680;2022-12-18T14:44:52;26.80;;;13.50;;
8538;SDS011;4307;53.868;11.680;2022-12-18T14:47:58;25.33;;;12.83;;
8538;SDS011;4307;53.868;11.680;2022-12-18T14:50:26;27.87;;;11.53;;
8538;SDS011;4307;53.868;11.680;2022-12-18T14:52:53;27.40;;;12.70;;
8538;SDS011;4307;53.868;11.680;2022-12-18T14:55:20;31.33;;;12.67;;
8538;SDS011;4307;53.868;11.680;2022-12-18T14:57:48;25.60;;;12.60;;
8538;SDS011;4307;53.868;11.680;2022-12-18T15:00:18;29.57;;;12.33;;
8538;SDS011;4307;53.868;11.680;2022-12-18T15:02:46;27.77;;;11.57;;